createdAt,value
2022-12-04T00:01:12.423Z,0.79
2022-12-04T00:03:39.579Z,0.85
2022-12-04T00:06:12.197Z,0.86
2022-12-04T00:08:39.215Z,0.63
2022-12-04T00:11:07.161Z,0.65
2022-12-04T00:13:34.586Z,0.49
2022-12-04T00:16:01.321Z,0.53
2022-12-04T00:18:27.915Z,0.59
2022-12-04T00:20:54.456Z,0.82
2022-12-04T00:23:21.041Z,0.51
2022-12-04T00:25:48.675Z,0.76
2022-12-04T00:28:18.716Z,0.63
2022-12-04T00:30:45.816Z,0.75
2022-12-04T00:33:13.697Z,0.58
2022-12-04T00:35:40.836Z,0.63
2022-12-04T00:38:07.674Z,0.69
2022-12-04T00:40:34.184Z,0.58
2022-12-04T00:43:00.999Z,0.69
2022-12-04T00:45:27.473Z,0.63
2022-12-04T00:47:54.012Z,0.61
2022-12-04T00:50:20.422Z,0.55
2022-12-04T00:52:46.839Z,0.63
2022-12-04T00:55:13.274Z,0.53
2022-12-04T00:57:39.923Z,0.51
2022-12-04T01:00:07.208Z,0.70
2022-12-04T01:02:33.710Z,0.75
2022-12-04T01:05:01.570Z,0.59
2022-12-04T01:07:28.120Z,0.91
2022-12-04T01:09:54.745Z,0.64
2022-12-04T01:12:21.435Z,0.56
2022-12-04T01:14:47.850Z,0.57
2022-12-04T01:17:14.243Z,0.49
2022-12-04T01:19:40.679Z,0.36
2022-12-04T01:22:07.068Z,0.43
2022-12-04T01:24:33.439Z,0.42
2022-12-04T01:26:59.873Z,0.45
2022-12-04T01:29:26.268Z,0.45
2022-12-04T01:31:52.787Z,0.48
2022-12-04T01:34:19.345Z,0.55
2022-12-04T01:36:45.807Z,0.51
2022-12-04T01:39:12.288Z,0.59
2022-12-04T01:41:38.713Z,0.53
2022-12-04T01:44:20.605Z,0.65
2022-12-04T01:46:58.173Z,0.77
2022-12-04T01:49:33.516Z,0.53
2022-12-04T01:52:13.797Z,0.49
2022-12-04T01:54:44.105Z,0.43
2022-12-04T01:57:18.243Z,0.50
2022-12-04T02:00:08.934Z,0.45
2022-12-04T02:02:39.247Z,0.57
2022-12-04T02:05:10.064Z,0.44
2022-12-04T02:07:38.331Z,0.43
2022-12-04T02:10:08.644Z,0.39
2022-12-04T02:12:50.389Z,0.51
2022-12-04T02:15:25.280Z,0.59
2022-12-04T02:18:03.787Z,0.30
2022-12-04T02:20:43.349Z,0.40
2022-12-04T02:23:15.921Z,0.42
2022-12-04T02:25:54.636Z,0.37
2022-12-04T02:28:28.443Z,0.41
2022-12-04T02:31:00.753Z,0.41
2022-12-04T02:33:28.635Z,0.35
2022-12-04T02:36:06.452Z,0.26
2022-12-04T02:38:37.339Z,0.46
2022-12-04T02:41:13.403Z,0.39
2022-12-04T02:43:55.820Z,0.40
2022-12-04T02:46:32.238Z,0.35
2022-12-04T02:49:03.642Z,0.51
2022-12-04T02:51:34.013Z,0.55
2022-12-04T02:54:18.462Z,0.60
2022-12-04T02:56:47.667Z,0.58
2022-12-04T02:59:22.797Z,0.60
2022-12-04T03:01:54.616Z,0.62
2022-12-04T03:04:25.474Z,0.76
2022-12-04T03:06:59.640Z,0.58
2022-12-04T03:09:41.114Z,0.45
2022-12-04T03:12:20.124Z,0.53
2022-12-04T03:15:13.611Z,0.49
2022-12-04T03:17:50.754Z,0.59
2022-12-04T03:20:17.496Z,0.63
2022-12-04T03:22:48.980Z,0.47
2022-12-04T03:25:15.401Z,0.43
2022-12-04T03:28:00.034Z,0.48
2022-12-04T03:30:35.518Z,0.51
2022-12-04T03:33:07.894Z,0.29
2022-12-04T03:35:44.776Z,0.37
2022-12-04T03:38:49.859Z,0.47
2022-12-04T03:41:21.968Z,0.44
2022-12-04T03:44:06.607Z,0.58
2022-12-04T03:46:45.833Z,0.57
2022-12-04T03:49:52.528Z,0.68
2022-12-04T03:52:34.014Z,0.47
2022-12-04T03:55:08.630Z,0.55
2022-12-04T03:57:42.301Z,0.52
2022-12-04T04:00:22.463Z,0.66
2022-12-04T04:02:52.948Z,0.58
2022-12-04T04:05:20.864Z,0.38
2022-12-04T04:07:55.463Z,0.28
2022-12-04T04:10:26.469Z,0.63
2022-12-04T04:13:21.933Z,0.43
2022-12-04T04:16:12.285Z,0.70
2022-12-04T04:19:00.356Z,0.39
2022-12-04T04:21:51.596Z,0.59
2022-12-04T04:24:42.200Z,0.70
2022-12-04T04:27:08.794Z,0.33
2022-12-04T04:29:35.778Z,0.35
2022-12-04T04:32:08.124Z,0.34
2022-12-04T04:35:00.414Z,0.38
2022-12-04T04:37:56.067Z,0.44
2022-12-04T04:40:29.181Z,0.44
2022-12-04T04:43:02.265Z,0.43
2022-12-04T04:45:38.563Z,0.47
2022-12-04T04:48:26.414Z,0.46
2022-12-04T04:50:53.881Z,0.51
2022-12-04T04:53:28.685Z,0.50
2022-12-04T04:55:55.944Z,0.53
2022-12-04T04:58:22.680Z,0.58
2022-12-04T05:01:19.047Z,0.53
2022-12-04T05:03:45.615Z,0.62
2022-12-04T05:06:12.320Z,0.57
2022-12-04T05:08:39.382Z,0.54
2022-12-04T05:11:06.737Z,0.69
2022-12-04T05:13:33.185Z,0.60
2022-12-04T05:16:01.932Z,0.63
2022-12-04T05:18:29.146Z,0.96
2022-12-04T05:20:56.053Z,0.78
2022-12-04T05:23:22.952Z,0.69
2022-12-04T05:25:49.727Z,0.67
2022-12-04T05:28:16.733Z,0.73
2022-12-04T05:30:43.236Z,0.66
2022-12-04T05:33:10.855Z,0.75
2022-12-04T05:35:37.248Z,0.76
2022-12-04T05:38:03.646Z,0.65
2022-12-04T05:40:30.052Z,0.75
2022-12-04T05:42:57.203Z,0.76
2022-12-04T05:45:23.605Z,0.82
2022-12-04T05:47:50.001Z,0.72
2022-12-04T05:50:16.449Z,0.86
2022-12-04T05:52:42.865Z,0.83
2022-12-04T05:55:09.367Z,0.84
2022-12-04T05:57:35.749Z,0.83
2022-12-04T06:00:02.167Z,0.76
2022-12-04T06:02:28.690Z,0.79
2022-12-04T06:04:55.128Z,0.68
2022-12-04T06:07:21.541Z,0.68
2022-12-04T06:09:47.942Z,0.75
2022-12-04T06:12:14.364Z,0.70
2022-12-04T06:14:40.798Z,0.83
2022-12-04T06:17:07.342Z,1.03
2022-12-04T06:19:33.857Z,0.79
2022-12-04T06:22:00.327Z,0.87
2022-12-04T06:24:26.741Z,0.77
2022-12-04T06:29:46.211Z,0.81
2022-12-04T06:32:16.477Z,0.86
2022-12-04T06:34:51.469Z,0.87
2022-12-04T06:37:17.915Z,0.93
2022-12-04T06:39:44.401Z,0.82
2022-12-04T06:42:10.796Z,0.76
2022-12-04T06:44:37.227Z,0.94
2022-12-04T06:47:03.603Z,0.85
2022-12-04T06:49:29.984Z,0.84
2022-12-04T06:51:56.863Z,1.01
2022-12-04T06:54:23.263Z,0.93
2022-12-04T06:56:49.862Z,1.00
2022-12-04T06:59:16.269Z,1.11
2022-12-04T07:01:42.783Z,0.97
2022-12-04T07:04:09.347Z,1.03
2022-12-04T07:06:38.877Z,1.01
2022-12-04T07:09:06.717Z,1.10
2022-12-04T07:11:34.115Z,0.92
2022-12-04T07:14:00.546Z,0.94
2022-12-04T07:16:28.225Z,0.98
2022-12-04T07:18:56.460Z,0.97
2022-12-04T07:21:29.181Z,1.05
2022-12-04T07:23:58.171Z,1.02
2022-12-04T07:26:26.351Z,1.12
2022-12-04T07:28:53.975Z,1.16
2022-12-04T07:31:23.049Z,0.96
2022-12-04T07:33:49.528Z,0.84
2022-12-04T07:36:22.050Z,1.13
2022-12-04T07:38:48.849Z,1.06
2022-12-04T07:41:15.715Z,0.95
2022-12-04T07:43:42.849Z,0.81
2022-12-04T07:46:15.519Z,0.90
2022-12-04T07:48:42.360Z,0.90
2022-12-04T07:51:14.220Z,0.96
2022-12-04T07:53:41.056Z,0.94
2022-12-04T07:56:07.797Z,0.87
2022-12-04T07:58:34.469Z,0.90
2022-12-04T08:01:12.307Z,0.92
2022-12-04T08:03:46.840Z,0.89
2022-12-04T08:06:14.870Z,1.03
2022-12-04T08:08:41.317Z,0.96
2022-12-04T08:11:10.649Z,0.64
2022-12-04T08:13:37.506Z,0.88
2022-12-04T08:16:05.089Z,0.86
2022-12-04T08:18:32.159Z,0.96
2022-12-04T08:21:11.068Z,0.78
2022-12-04T08:23:38.984Z,0.84
2022-12-04T08:26:06.134Z,0.80
2022-12-04T08:28:33.931Z,0.80
2022-12-04T08:31:06.208Z,0.77
2022-12-04T08:33:33.519Z,0.83
2022-12-04T08:36:00.151Z,0.91
2022-12-04T08:38:26.693Z,1.15
2022-12-04T08:40:53.066Z,1.14
2022-12-04T08:43:19.489Z,1.02
2022-12-04T08:45:55.154Z,1.05
2022-12-04T08:48:21.844Z,1.01
2022-12-04T08:50:48.214Z,1.11
2022-12-04T08:53:14.652Z,1.21
2022-12-04T08:55:41.323Z,1.19
2022-12-04T08:58:07.771Z,1.10
2022-12-04T09:00:34.266Z,1.24
2022-12-04T09:03:00.791Z,1.29
2022-12-04T09:05:27.206Z,1.21
2022-12-04T09:07:53.719Z,1.17
2022-12-04T09:10:20.327Z,1.35
2022-12-04T09:12:46.816Z,0.95
2022-12-04T09:15:13.410Z,1.22
2022-12-04T09:17:39.878Z,1.16
2022-12-04T09:20:08.112Z,1.30
2022-12-04T09:23:01.797Z,1.46
2022-12-04T09:25:22.251Z,1.30
2022-12-04T09:27:48.683Z,0.95
2022-12-04T09:30:15.237Z,0.99
2022-12-04T09:32:41.709Z,1.16
2022-12-04T09:35:08.711Z,1.21
2022-12-04T09:37:36.653Z,1.17
2022-12-04T09:40:07.586Z,1.22
2022-12-04T09:42:36.996Z,1.10
2022-12-04T09:45:25.663Z,1.34
2022-12-04T09:48:01.316Z,1.38
2022-12-04T09:50:43.559Z,1.50
2022-12-04T09:53:22.097Z,1.38
2022-12-04T09:56:01.382Z,1.54
2022-12-04T09:58:46.799Z,1.55
2022-12-04T10:01:29.106Z,1.42
2022-12-04T10:04:00.009Z,1.52
2022-12-04T10:06:43.909Z,1.46
2022-12-04T10:09:30.578Z,1.40
2022-12-04T10:11:59.947Z,1.51
2022-12-04T10:14:56.102Z,1.41
2022-12-04T10:17:49.650Z,1.43
2022-12-04T10:20:41.105Z,1.37
2022-12-04T10:23:36.969Z,1.60
2022-12-04T10:26:05.329Z,1.59
2022-12-04T10:28:33.677Z,1.57
2022-12-04T10:31:03.514Z,1.58
2022-12-04T10:34:02.106Z,1.69
2022-12-04T10:36:32.689Z,1.58
2022-12-04T10:39:00.693Z,1.67
2022-12-04T10:42:01.478Z,1.69
2022-12-04T10:44:27.952Z,1.71
2022-12-04T10:46:58.525Z,1.55
2022-12-04T10:49:28.541Z,1.37
2022-12-04T10:51:55.594Z,1.48
2022-12-04T10:54:33.908Z,1.52
2022-12-04T10:57:03.327Z,1.40
2022-12-04T10:59:30.429Z,1.37
2022-12-04T11:02:14.860Z,1.58
2022-12-04T11:04:41.985Z,1.59
2022-12-04T11:07:26.358Z,1.65
2022-12-04T11:10:05.264Z,1.48
2022-12-04T11:12:32.553Z,1.55
2022-12-04T11:15:07.792Z,1.62
2022-12-04T11:17:34.348Z,1.59
2022-12-04T11:20:15.257Z,1.49
2022-12-04T11:22:54.618Z,1.54
2022-12-04T11:25:23.437Z,1.50
2022-12-04T11:27:54.155Z,1.56
2022-12-04T11:30:26.354Z,1.55
2022-12-04T11:32:54.226Z,1.68
2022-12-04T11:35:23.263Z,1.65
2022-12-04T11:37:57.061Z,1.55
2022-12-04T11:40:25.559Z,1.63
2022-12-04T11:43:12.843Z,1.65
2022-12-04T11:45:40.022Z,1.56
2022-12-04T11:48:18.402Z,1.56
2022-12-04T11:51:06.522Z,1.56
2022-12-04T11:53:41.594Z,1.59
2022-12-04T11:56:16.853Z,1.50
2022-12-04T11:58:52.737Z,1.53
2022-12-04T12:01:57.969Z,1.71
2022-12-04T12:05:15.654Z,1.62
2022-12-04T12:08:03.695Z,1.52
2022-12-04T12:10:44.923Z,1.32
2022-12-04T12:13:41.959Z,1.35
2022-12-04T12:16:41.058Z,1.31
2022-12-04T12:19:34.950Z,1.22
2022-12-04T12:22:38.670Z,1.24
2022-12-04T12:25:18.913Z,1.43
2022-12-04T12:28:11.308Z,1.63
2022-12-04T12:30:52.402Z,1.58
2022-12-04T12:33:34.585Z,1.69
2022-12-04T12:36:08.450Z,1.78
2022-12-04T12:38:44.483Z,1.64
2022-12-04T12:41:15.461Z,1.69
2022-12-04T12:43:47.313Z,1.66
2022-12-04T12:46:19.922Z,1.54
2022-12-04T12:49:13.171Z,1.67
2022-12-04T12:51:51.365Z,1.71
2022-12-04T12:54:31.276Z,1.50
2022-12-04T12:57:06.313Z,1.60
2022-12-04T12:59:34.034Z,1.67
2022-12-04T13:02:29.269Z,1.76
2022-12-04T13:05:01.140Z,1.73
2022-12-04T13:07:27.622Z,1.70
2022-12-04T13:10:12.544Z,1.63
2022-12-04T13:12:47.327Z,1.66
2022-12-04T13:15:16.577Z,1.85
2022-12-04T13:17:45.126Z,1.85
2022-12-04T13:20:22.148Z,1.98
2022-12-04T13:22:53.932Z,1.91
2022-12-04T13:25:31.327Z,1.95
2022-12-04T13:27:57.697Z,1.87
2022-12-04T13:30:32.746Z,1.78
2022-12-04T13:33:23.468Z,1.96
2022-12-04T13:36:11.585Z,1.92
2022-12-04T13:39:09.016Z,2.10
2022-12-04T13:41:38.697Z,2.08
2022-12-04T13:44:19.726Z,2.04
2022-12-04T13:46:58.197Z,2.04
2022-12-04T13:49:30.777Z,2.07
2022-12-04T13:51:59.040Z,1.98
2022-12-04T13:54:36.502Z,2.03
2022-12-04T13:57:15.008Z,2.05
2022-12-04T13:59:42.740Z,1.87
2022-12-04T14:02:35.263Z,1.82
2022-12-04T14:05:05.381Z,1.83
2022-12-04T14:07:37.738Z,1.99
2022-12-04T14:10:07.640Z,1.97
2022-12-04T14:12:39.682Z,1.78
2022-12-04T14:15:21.664Z,1.83
2022-12-04T14:18:06.961Z,1.95
2022-12-04T14:20:34.739Z,2.07
2022-12-04T14:23:35.038Z,1.74
2022-12-04T14:26:03.161Z,1.79
2022-12-04T14:28:37.327Z,1.77
2022-12-04T14:31:14.308Z,1.67
2022-12-04T14:33:55.035Z,1.49
2022-12-04T14:36:28.044Z,1.64
2022-12-04T14:39:24.347Z,1.36
2022-12-04T14:41:52.178Z,1.35
2022-12-04T14:44:29.476Z,1.47
2022-12-04T14:47:03.370Z,1.37
2022-12-04T14:49:32.516Z,1.50
2022-12-04T14:52:14.922Z,1.32
2022-12-04T14:55:17.718Z,1.49
2022-12-04T14:58:24.094Z,1.38
2022-12-04T15:00:52.533Z,1.47
2022-12-04T15:03:19.343Z,1.42
2022-12-04T15:05:45.853Z,1.26
2022-12-04T15:08:14.205Z,1.40
2022-12-04T15:11:06.578Z,1.36
2022-12-04T15:13:34.798Z,1.35
2022-12-04T15:16:21.943Z,1.43
2022-12-04T15:19:01.005Z,1.59
2022-12-04T15:21:38.822Z,1.61
2022-12-04T15:24:20.026Z,1.67
2022-12-04T15:26:48.360Z,1.52
2022-12-04T15:29:22.175Z,1.51
2022-12-04T15:31:56.668Z,1.60
2022-12-04T15:34:37.832Z,1.39
2022-12-04T15:37:08.576Z,1.48
2022-12-04T15:39:37.914Z,1.43
2022-12-04T15:42:23.744Z,1.42
2022-12-04T15:44:53.540Z,1.46
2022-12-04T15:47:25.748Z,1.37
2022-12-04T15:49:52.256Z,1.45
2022-12-04T15:52:23.561Z,1.60
2022-12-04T15:54:57.843Z,1.57
2022-12-04T15:57:34.116Z,1.57
2022-12-04T16:00:05.136Z,1.71
2022-12-04T16:02:39.534Z,1.77
2022-12-04T16:05:21.126Z,1.78
2022-12-04T16:07:49.334Z,1.60
2022-12-04T16:10:21.340Z,1.57
2022-12-04T16:12:56.795Z,1.56
2022-12-04T16:15:25.603Z,1.73
2022-12-04T16:17:52.939Z,1.63
2022-12-04T16:20:20.551Z,1.69
2022-12-04T16:22:52.181Z,1.65
2022-12-04T16:25:18.645Z,1.68
2022-12-04T16:27:45.045Z,1.77
2022-12-04T16:30:13.796Z,1.87
2022-12-04T16:32:40.228Z,1.92
2022-12-04T16:35:07.038Z,1.82
2022-12-04T16:37:33.592Z,1.76
2022-12-04T16:40:00.079Z,1.92
2022-12-04T16:42:29.440Z,1.91
2022-12-04T16:44:56.601Z,1.97
2022-12-04T16:47:23.206Z,1.79
2022-12-04T16:49:51.550Z,1.81
2022-12-04T16:52:18.749Z,1.88
2022-12-04T16:54:45.418Z,2.02
2022-12-04T16:57:11.936Z,1.83
2022-12-04T16:59:38.567Z,1.88
2022-12-04T17:02:17.447Z,1.83
2022-12-04T17:04:44.071Z,2.00
2022-12-04T17:07:10.559Z,1.96
2022-12-04T17:09:37.040Z,1.72
2022-12-04T17:12:03.588Z,1.88
2022-12-04T17:14:29.992Z,1.65
2022-12-04T17:16:58.627Z,1.90
2022-12-04T17:19:25.113Z,1.79
2022-12-04T17:21:51.533Z,1.76
2022-12-04T17:24:17.968Z,1.87
2022-12-04T17:26:44.407Z,1.81
2022-12-04T17:29:10.834Z,1.90
2022-12-04T17:31:37.396Z,1.83
2022-12-04T17:34:03.853Z,1.96
2022-12-04T17:36:30.325Z,1.94
2022-12-04T17:38:58.689Z,1.98
2022-12-04T17:41:25.255Z,1.90
2022-12-04T17:43:51.796Z,1.92
2022-12-04T17:46:21.597Z,2.01
2022-12-04T17:48:48.802Z,2.01
2022-12-04T17:51:19.257Z,1.90
2022-12-04T17:53:46.950Z,1.95
2022-12-04T17:56:17.248Z,1.79
2022-12-04T17:58:44.980Z,1.83
2022-12-04T18:01:14.792Z,1.91
2022-12-04T18:03:43.252Z,1.94
2022-12-04T18:06:14.850Z,1.96
2022-12-04T18:08:46.580Z,1.89
2022-12-04T18:11:16.887Z,2.01
2022-12-04T18:13:43.291Z,1.96
2022-12-04T18:16:11.192Z,1.95
2022-12-04T18:18:39.230Z,2.07
2022-12-04T18:21:10.797Z,1.97
2022-12-04T18:23:40.085Z,1.88
2022-12-04T18:26:06.835Z,1.94
2022-12-04T18:28:33.298Z,1.90
2022-12-04T18:31:05.276Z,2.08
2022-12-04T18:33:33.516Z,2.11
2022-12-04T18:36:00.683Z,2.01
2022-12-04T18:38:30.510Z,2.01
2022-12-04T18:41:02.777Z,2.01
2022-12-04T18:43:29.409Z,2.14
2022-12-04T18:46:07.676Z,2.20
2022-12-04T18:48:35.482Z,2.10
2022-12-04T18:51:02.422Z,2.22
2022-12-04T18:53:28.986Z,2.34
2022-12-04T18:55:55.520Z,2.14
2022-12-04T18:58:22.905Z,2.07
2022-12-04T19:00:51.624Z,2.19
2022-12-04T19:03:18.373Z,2.11
2022-12-04T19:05:51.080Z,2.12
2022-12-04T19:08:17.780Z,2.20
2022-12-04T19:10:44.335Z,2.12
2022-12-04T19:13:10.773Z,2.17
2022-12-04T19:15:42.859Z,2.16
2022-12-04T19:18:09.437Z,2.11
2022-12-04T19:20:39.613Z,1.90
2022-12-04T19:23:06.068Z,1.95
2022-12-04T19:25:32.507Z,2.07
2022-12-04T19:27:59.122Z,2.11
2022-12-04T19:30:26.423Z,2.14
2022-12-04T19:32:52.938Z,2.16
2022-12-04T19:35:19.378Z,2.11
2022-12-04T19:37:51.120Z,2.15
2022-12-04T19:40:19.216Z,2.14
2022-12-04T19:42:45.650Z,2.05
2022-12-04T19:45:12.198Z,2.06
2022-12-04T19:47:38.842Z,2.16
2022-12-04T19:50:06.119Z,2.10
2022-12-04T19:52:33.547Z,2.18
2022-12-04T19:54:59.994Z,2.27
2022-12-04T19:57:26.463Z,2.30
2022-12-04T19:59:52.853Z,2.29
2022-12-04T20:02:19.768Z,2.32
2022-12-04T20:04:46.403Z,2.28
2022-12-04T20:07:12.884Z,2.24
2022-12-04T20:09:39.404Z,2.44
2022-12-04T20:12:06.443Z,2.37
2022-12-04T20:14:32.919Z,2.40
2022-12-04T20:17:01.524Z,2.33
2022-12-04T20:19:28.005Z,2.32
2022-12-04T20:21:59.141Z,2.38
2022-12-04T20:24:25.901Z,2.48
2022-12-04T20:26:52.545Z,2.42
2022-12-04T20:29:19.102Z,2.41
2022-12-04T20:31:46.635Z,2.45
2022-12-04T20:34:15.498Z,2.41
2022-12-04T20:36:44.060Z,2.33
2022-12-04T20:39:11.923Z,2.22
2022-12-04T20:41:39.240Z,2.33
2022-12-04T20:44:07.734Z,2.41
2022-12-04T20:46:37.016Z,2.37
2022-12-04T20:49:06.432Z,2.14
2022-12-04T20:51:39.477Z,2.30
2022-12-04T20:54:08.812Z,2.23
2022-12-04T20:56:37.601Z,2.26
2022-12-04T20:59:07.547Z,2.29
2022-12-04T21:02:00.846Z,2.32
2022-12-04T21:04:27.250Z,2.28
2022-12-04T21:06:53.647Z,2.30
2022-12-04T21:09:22.986Z,2.30
2022-12-04T21:11:54.927Z,2.22
2022-12-04T21:14:46.093Z,2.30
2022-12-04T21:17:18.293Z,2.38
2022-12-04T21:19:46.981Z,2.23
2022-12-04T21:22:13.954Z,2.25
2022-12-04T21:24:42.048Z,2.21
2022-12-04T21:27:12.411Z,2.38
2022-12-04T21:29:43.061Z,2.34
2022-12-04T21:32:09.491Z,2.28
2022-12-04T21:34:35.931Z,2.37
2022-12-04T21:37:02.385Z,2.24
2022-12-04T21:39:28.803Z,2.24
2022-12-04T21:42:13.688Z,2.30
2022-12-04T21:44:40.129Z,2.35
2022-12-04T21:47:06.760Z,2.44
2022-12-04T21:49:33.188Z,2.39
2022-12-04T21:51:59.791Z,2.30
2022-12-04T21:54:27.736Z,2.35
2022-12-04T21:56:55.148Z,2.42
2022-12-04T21:59:22.415Z,2.24
2022-12-04T22:01:48.944Z,2.42
2022-12-04T22:04:15.876Z,2.39
2022-12-04T22:06:42.577Z,2.37
2022-12-04T22:09:11.436Z,2.38
2022-12-04T22:11:41.318Z,2.38
2022-12-04T22:14:08.652Z,2.38
2022-12-04T22:16:41.293Z,2.37
2022-12-04T22:19:09.328Z,2.52
2022-12-04T22:21:35.695Z,2.42
2022-12-04T22:24:03.669Z,2.53
2022-12-04T22:26:31.457Z,2.48
2022-12-04T22:28:57.945Z,2.57
2022-12-04T22:31:26.973Z,2.48
2022-12-04T22:33:55.540Z,2.32
2022-12-04T22:36:24.799Z,2.52
2022-12-04T22:41:38.478Z,2.53
2022-12-04T22:44:05.957Z,2.48
2022-12-04T22:46:32.981Z,2.51
2022-12-04T22:48:59.954Z,2.48
2022-12-04T22:51:27.207Z,2.34
2022-12-04T22:53:55.805Z,2.40
2022-12-04T22:56:30.206Z,2.25
2022-12-04T22:58:58.041Z,2.40
2022-12-04T23:01:30.176Z,2.41
2022-12-04T23:03:57.445Z,2.38
2022-12-04T23:06:26.611Z,2.41
2022-12-04T23:09:02.296Z,2.48
2022-12-04T23:11:29.247Z,2.26
2022-12-04T23:13:59.947Z,2.21
2022-12-04T23:16:28.246Z,2.18
2022-12-04T23:18:54.692Z,2.28
2022-12-04T23:21:22.317Z,2.33
2022-12-04T23:23:50.620Z,2.26
2022-12-04T23:26:22.779Z,2.29
2022-12-04T23:28:49.188Z,2.40
2022-12-04T23:31:16.463Z,2.21
2022-12-04T23:33:43.065Z,2.22
2022-12-04T23:36:11.316Z,2.24
2022-12-04T23:38:39.222Z,2.38
2022-12-04T23:41:13.571Z,2.44
2022-12-04T23:43:40.717Z,2.26
2022-12-04T23:46:11.272Z,2.35
2022-12-04T23:48:42.582Z,2.39
2022-12-04T23:51:10.594Z,2.45
2022-12-04T23:53:37.593Z,2.40
2022-12-04T23:56:08.451Z,2.36
2022-12-04T23:58:36.433Z,2.31
